Time;durP1;ratioP1;P1;durP2;ratioP2;P2;SDS_P1;SDS_P2;PMS_P1;PMS_P2;Temp;Humidity;BMP_temperature;BMP_pressure;BME280_temperature;BME280_humidity;BME280_pressure;Samples;Min_cycle;Max_cycle;Signal;HPM_P1;HPM_P2
2023/08/19 00:02:18;;;;;;;3.57;3.37;;;;;;;26.22;51.32;99514.56;5031569;28;20197;-65
2023/08/19 00:04:45;;;;;;;5.30;3.67;;;;;;;26.26;51.27;99510.13;5031677;28;20193;-66
2023/08/19 00:07:15;;;;;;;5.40;3.60;;;;;;;26.27;51.24;99514.47;5023745;28;20194;-67
2023/08/19 00:09:42;;;;;;;4.43;4.03;;;;;;;26.18;51.40;99508.91;5011914;28;20393;-67
2023/08/19 00:12:08;;;;;;;4.27;3.33;;;;;;;26.03;51.68;99511.03;5011603;28;20724;-66
2023/08/19 00:14:35;;;;;;;6.63;4.23;;;;;;;26.08;51.16;99500.88;5011883;28;20681;-66
2023/08/19 00:17:03;;;;;;;4.67;3.43;;;;;;;26.01;51.52;99503.16;5011775;28;20201;-66
2023/08/19 00:19:30;;;;;;;7.03;4.20;;;;;;;25.95;51.77;99508.97;5012018;28;20198;-67
2023/08/19 00:21:56;;;;;;;4.27;3.57;;;;;;;25.93;52.19;99514.69;5029940;28;20246;-65
2023/08/19 00:24:24;;;;;;;5.77;3.80;;;;;;;26.00;52.06;99507.00;5029840;28;20190;-66
2023/08/19 00:26:51;;;;;;;4.53;4.13;;;;;;;26.05;51.92;99503.41;5031472;28;20267;-66
2023/08/19 00:29:18;;;;;;;3.70;3.50;;;;;;;26.07;52.16;99510.16;5034269;28;20751;-66
2023/08/19 00:31:45;;;;;;;4.67;4.13;;;;;;;26.13;51.92;99510.91;5034924;28;20245;-67
2023/08/19 00:34:11;;;;;;;4.70;3.90;;;;;;;26.09;51.77;99504.44;5015269;28;20198;-66
2023/08/19 00:36:38;;;;;;;4.10;3.70;;;;;;;26.03;51.73;99506.41;5015422;28;20198;-67
2023/08/19 00:39:05;;;;;;;5.43;4.27;;;;;;;26.09;52.04;99512.59;5015738;28;20198;-65
2023/08/19 00:41:34;;;;;;;4.33;3.80;;;;;;;26.14;52.33;99509.78;5015323;28;20276;-65
2023/08/19 00:44:01;;;;;;;5.83;4.20;;;;;;;26.17;52.01;99514.66;5019048;28;20272;-65
2023/08/19 00:46:28;;;;;;;4.80;4.00;;;;;;;26.20;51.59;99516.75;5034686;28;20197;-65
2023/08/19 00:48:55;;;;;;;5.10;4.77;;;;;;;26.24;51.42;99521.31;5035105;28;20621;-65
2023/08/19 00:51:22;;;;;;;4.63;4.23;;;;;;;26.19;51.44;99515.97;5034891;28;20229;-67
2023/08/19 00:53:49;;;;;;;5.37;4.70;;;;;;;26.19;52.30;99509.69;5041671;28;20248;-66
2023/08/19 00:56:16;;;;;;;7.60;4.93;;;;;;;26.25;51.69;99513.97;5045951;28;20189;-66
2023/08/19 00:58:44;;;;;;;4.57;4.13;;;;;;;26.25;52.49;99511.25;5034686;28;20247;-66
2023/08/19 01:01:11;;;;;;;5.10;4.70;;;;;;;26.29;52.81;99520.44;5034103;28;20256;-66
2023/08/19 01:03:38;;;;;;;5.80;4.50;;;;;;;26.38;52.74;99513.19;5034428;28;20189;-66
2023/08/19 01:06:17;;;;;;;6.07;4.23;;;;;;;26.40;50.82;99516.41;5034206;28;20247;-66
2023/08/19 01:08:56;;;;;;;4.90;4.50;;;;;;;26.43;51.68;99510.38;5025085;28;20185;-66
2023/08/19 01:11:52;;;;;;;4.60;4.00;;;;;;;26.48;51.64;99507.56;5034495;28;20287;-66
2023/08/19 01:14:32;;;;;;;5.13;4.63;;;;;;;26.49;51.37;99499.09;5034615;28;20232;-65
2023/08/19 01:17:03;;;;;;;6.53;4.87;;;;;;;26.51;51.27;99512.41;5034151;28;20185;-65
2023/08/19 01:19:32;;;;;;;6.50;4.33;;;;;;;26.47;51.72;99511.41;5034286;28;20190;-65
2023/08/19 01:22:03;;;;;;;8.37;5.07;;;;;;;26.41;51.80;99504.44;5033168;28;20197;-65
2023/08/19 01:24:35;;;;;;;5.40;4.90;;;;;;;26.45;51.88;99502.72;5034538;28;20544;-65
2023/08/19 01:27:04;;;;;;;5.63;4.47;;;;;;;26.44;52.04;99507.34;5034343;28;20189;-64
2023/08/19 01:29:30;;;;;;;5.67;5.00;;;;;;;26.46;52.17;99504.34;5034336;28;20225;-65
2023/08/19 01:31:57;;;;;;;7.60;4.93;;;;;;;26.53;51.68;99512.91;5028573;28;20234;-65
2023/08/19 01:34:25;;;;;;;5.90;5.37;;;;;;;26.51;52.33;99518.69;5014186;28;20194;-65
2023/08/19 01:36:57;;;;;;;9.80;5.17;;;;;;;26.50;52.25;99516.25;5014431;28;20229;-66
2023/08/19 01:39:25;;;;;;;11.30;5.10;;;;;;;26.49;51.71;99514.63;5013963;28;20616;-66
2023/08/19 01:41:54;;;;;;;7.47;4.67;;;;;;;26.42;51.66;99509.56;5014296;28;20209;-66
2023/08/19 01:44:22;;;;;;;5.17;4.67;;;;;;;26.41;51.71;99510.69;5020759;28;20197;-66
2023/08/19 01:46:49;;;;;;;5.43;4.63;;;;;;;26.43;52.10;99494.03;5034091;28;20276;-65
2023/08/19 01:49:15;;;;;;;4.27;3.97;;;;;;;26.45;51.37;99491.84;5033877;28;20189;-66
2023/08/19 01:51:42;;;;;;;7.80;4.63;;;;;;;26.46;51.45;99486.06;5033468;28;20304;-66
2023/08/19 01:54:09;;;;;;;5.77;3.93;;;;;;;26.50;51.28;99483.56;5013688;28;20697;-66
2023/08/19 01:56:35;;;;;;;5.80;3.90;;;;;;;26.51;50.01;99486.00;5014143;28;20198;-66
2023/08/19 01:59:04;;;;;;;4.70;3.60;;;;;;;26.54;50.40;99474.47;5013887;28;20197;-66
2023/08/19 02:01:30;;;;;;;4.23;3.90;;;;;;;26.54;48.70;99487.31;5013932;28;20260;-66
2023/08/19 02:03:57;;;;;;;4.87;3.50;;;;;;;26.49;49.63;99484.66;5030167;28;20193;-65
2023/08/19 02:06:24;;;;;;;3.77;3.43;;;;;;;26.46;49.43;99483.34;5031618;28;20259;-65
2023/08/19 02:08:51;;;;;;;5.77;3.07;;;;;;;26.40;48.77;99500.06;5013408;28;20194;-67
2023/08/19 02:11:19;;;;;;;3.33;3.03;;;;;;;26.31;48.47;99491.78;5013407;28;20222;-67
2023/08/19 02:13:46;;;;;;;3.67;3.37;;;;;;;26.18;50.30;99491.75;5013359;28;20237;-68
2023/08/19 02:16:14;;;;;;;4.13;3.07;;;;;;;26.19;50.76;99490.63;5033506;28;20193;-66
2023/08/19 02:18:41;;;;;;;7.37;3.60;;;;;;;26.18;49.86;99503.47;5033067;28;20319;-66
2023/08/19 02:21:07;;;;;;;3.70;3.40;;;;;;;26.08;50.14;99500.88;5033081;28;20228;-66
2023/08/19 02:23:34;;;;;;;4.00;3.53;;;;;;;26.07;51.40;99495.72;5033275;28;20271;-66
2023/08/19 02:26:01;;;;;;;5.93;3.97;;;;;;;26.08;50.38;99508.22;5027966;28;20260;-66
2023/08/19 02:28:27;;;;;;;4.13;3.60;;;;;;;26.06;50.10;99510.44;5013327;28;20194;-66
2023/08/19 02:30:54;;;;;;;3.90;3.50;;;;;;;26.04;51.49;99496.34;5013120;28;20242;-67
2023/08/19 02:33:22;;;;;;;3.33;3.13;;;;;;;26.03;50.94;99506.41;5013365;28;20190;-66
2023/08/19 02:35:51;;;;;;;6.73;3.30;;;;;;;25.98;51.00;99519.28;5012993;28;20732;-66
2023/08/19 02:38:18;;;;;;;6.17;3.83;;;;;;;25.90;51.93;99517.19;5019021;28;20193;-66
2023/08/19 02:40:49;;;;;;;8.67;4.10;;;;;;;25.83;52.46;99512.13;5032630;28;20263;-66
2023/08/19 02:43:16;;;;;;;4.97;4.03;;;;;;;25.71;52.56;99517.19;5033059;28;20244;-66
2023/08/19 02:45:44;;;;;;;8.03;4.40;;;;;;;25.60;53.21;99512.22;5032856;28;20300;-67
2023/08/19 02:48:10;;;;;;;4.17;3.87;;;;;;;25.54;54.33;99507.91;5032473;28;20189;-68
2023/08/19 02:50:38;;;;;;;5.37;3.77;;;;;;;25.49;55.05;99510.72;5022133;28;20284;-67
2023/08/19 02:53:05;;;;;;;5.70;3.77;;;;;;;25.55;54.95;99498.69;5012698;28;20252;-67
2023/08/19 02:55:32;;;;;;;4.80;4.40;;;;;;;25.60;55.17;99501.31;5012825;28;20281;-67
2023/08/19 02:57:59;;;;;;;8.50;4.50;;;;;;;25.46;55.47;99505.84;5012471;28;20281;-69
2023/08/19 03:00:26;;;;;;;4.93;4.17;;;;;;;25.48;55.64;99499.00;5032326;28;20657;-67
2023/08/19 03:02:53;;;;;;;5.10;4.10;;;;;;;25.62;55.47;99497.19;5032453;28;20228;-67
2023/08/19 03:05:20;;;;;;;6.17;4.27;;;;;;;25.70;55.11;99495.72;5032256;28;20201;-66
2023/08/19 03:07:48;;;;;;;4.53;4.23;;;;;;;25.74;54.72;99496.75;5031841;28;20586;-65
2023/08/19 03:10:15;;;;;;;5.00;4.50;;;;;;;25.73;55.21;99498.69;5031919;28;20193;-63
2023/08/19 03:12:42;;;;;;;5.67;4.57;;;;;;;25.85;54.62;99492.78;5032051;28;20252;-64
2023/08/19 03:15:09;;;;;;;5.83;4.97;;;;;;;25.93;54.34;99494.84;5032617;28;20194;-65
2023/08/19 03:17:36;;;;;;;5.03;4.00;;;;;;;25.79;54.75;99499.38;5021767;28;20248;-65
2023/08/19 03:20:02;;;;;;;4.50;4.10;;;;;;;25.77;54.85;99490.72;5012500;28;20206;-65
2023/08/19 03:22:29;;;;;;;4.57;3.90;;;;;;;25.94;54.51;99496.47;5033663;28;20192;-65
2023/08/19 03:24:57;;;;;;;4.00;3.80;;;;;;;25.93;54.08;99486.69;5052042;28;20251;-65
2023/08/19 03:27:24;;;;;;;10.03;5.10;;;;;;;26.01;54.17;99499.66;5051750;28;20250;-65
2023/08/19 03:29:50;;;;;;;5.10;4.70;;;;;;;25.73;55.22;99501.41;5031743;28;20674;-65
2023/08/19 03:32:17;;;;;;;5.40;4.63;;;;;;;25.62;55.32;99505.38;5012293;28;20291;-66
2023/08/19 03:34:44;;;;;;;5.37;4.57;;;;;;;25.66;55.37;99506.41;5012346;28;20249;-65
2023/08/19 03:37:10;;;;;;;5.50;4.93;;;;;;;25.46;55.90;99527.59;5011952;28;20198;-66
2023/08/19 03:39:37;;;;;;;5.53;5.10;;;;;;;25.24;56.89;99514.56;5012252;28;20193;-66
2023/08/19 03:42:05;;;;;;;8.33;5.10;;;;;;;25.26;56.58;99522.38;5019313;28;20243;-66
2023/08/19 03:44:32;;;;;;;6.20;4.90;;;;;;;25.19;57.53;99511.88;5030487;28;20189;-65
2023/08/19 03:46:59;;;;;;;9.03;5.57;;;;;;;25.17;56.96;99522.25;5032016;28;20258;-65
2023/08/19 03:49:25;;;;;;;5.80;5.13;;;;;;;25.02;57.78;99534.09;5031869;28;20193;-66
2023/08/19 03:51:52;;;;;;;9.03;5.10;;;;;;;24.96;58.73;99529.81;5031140;28;20224;-66
2023/08/19 03:54:19;;;;;;;6.17;5.03;;;;;;;25.07;58.56;99533.22;5011792;28;20256;-66
2023/08/19 03:56:45;;;;;;;7.43;4.60;;;;;;;25.17;57.92;99532.28;5011874;28;20245;-66
2023/08/19 03:59:13;;;;;;;8.77;5.00;;;;;;;25.36;57.34;99527.75;5011738;28;20190;-65
2023/08/19 04:01:40;;;;;;;7.50;5.67;;;;;;;25.55;56.81;99526.69;5022964;28;20197;-65
2023/08/19 04:04:07;;;;;;;7.37;6.10;;;;;;;25.45;56.95;99528.72;5035558;28;20280;-66
2023/08/19 04:06:34;;;;;;;5.37;4.90;;;;;;;25.48;57.04;99520.78;5033146;28;20240;-65
2023/08/19 04:09:01;;;;;;;5.33;4.87;;;;;;;25.73;56.36;99512.28;5015711;28;20289;-66
2023/08/19 04:11:28;;;;;;;6.87;6.03;;;;;;;25.95;55.30;99520.69;5024551;28;20300;-66
2023/08/19 04:13:55;;;;;;;15.77;8.00;;;;;;;26.11;54.83;99511.19;5035487;28;20189;-65
2023/08/19 04:16:23;;;;;;;9.47;7.80;;;;;;;26.02;55.59;99503.97;5035462;28;20254;-67
2023/08/19 04:18:51;;;;;;;12.23;7.40;;;;;;;26.04;55.43;99508.03;5035438;28;20193;-67
2023/08/19 04:21:18;;;;;;;21.97;9.83;;;;;;;25.94;54.99;99512.81;5035149;28;20704;-66
2023/08/19 04:23:45;;;;;;;13.07;8.83;;;;;;;25.70;55.62;99502.00;5022917;28;20197;-66
2023/08/19 04:26:12;;;;;;;11.33;8.10;;;;;;;25.82;56.16;99499.63;5038626;28;20201;-67
2023/08/19 04:28:39;;;;;;;8.67;7.57;;;;;;;26.03;54.51;99505.59;5054987;28;20659;-67
2023/08/19 04:31:10;;;;;;;12.77;6.80;;;;;;;26.01;54.66;99494.19;5055076;28;20286;-64
2023/08/19 04:33:38;;;;;;;6.20;5.60;;;;;;;25.98;58.40;99501.06;5055322;28;20203;-66
2023/08/19 04:36:05;;;;;;;8.67;7.70;;;;;;;26.03;55.78;99517.31;5038883;28;20276;-65
2023/08/19 04:38:32;;;;;;;7.73;6.77;;;;;;;25.87;57.47;99517.78;5034879;28;20677;-64
2023/08/19 04:41:00;;;;;;;11.03;9.47;;;;;;;25.83;56.43;99522.19;5035173;28;20197;-64
2023/08/19 04:43:29;;;;;;;17.50;12.53;;;;;;;25.71;57.26;99519.09;5034687;28;20738;-65
2023/08/19 04:45:56;;;;;;;8.60;6.77;;;;;;;26.08;57.91;99519.94;5034607;28;20669;-67
2023/08/19 04:48:22;;;;;;;23.60;13.47;;;;;;;26.34;56.04;99529.31;5020048;28;20201;-65
2023/08/19 04:50:50;;;;;;;29.23;21.37;;;;;;;26.52;55.22;99535.84;5014915;28;20190;-65
2023/08/19 04:53:17;;;;;;;52.03;37.87;;;;;;;26.28;53.86;99546.03;5015116;28;20210;-64
2023/08/19 04:55:46;;;;;;;58.63;41.83;;;;;;;26.04;55.01;99556.25;5015109;28;20194;-65
2023/08/19 04:58:12;;;;;;;56.23;34.07;;;;;;;25.89;57.09;99559.94;5015039;28;20206;-65
2023/08/19 05:00:40;;;;;;;56.47;34.57;;;;;;;26.09;54.66;99558.88;5031790;28;20221;-64
2023/08/19 05:03:10;;;;;;;47.67;33.43;;;;;;;26.11;54.21;99500.28;5034663;28;20204;-64
2023/08/19 05:05:37;;;;;;;50.13;29.97;;;;;;;26.71;52.33;99566.59;5034327;28;20639;-63
2023/08/19 05:08:07;;;;;;;36.73;22.83;;;;;;;26.46;53.39;99569.72;5028542;28;20197;-64
2023/08/19 05:10:44;;;;;;;30.67;22.33;;;;;;;26.25;54.45;99574.69;5034328;28;20209;-63
2023/08/19 05:13:11;;;;;;;31.00;22.20;;;;;;;26.32;56.07;99577.03;5033703;28;20217;-64
2023/08/19 05:15:38;;;;;;;24.07;16.80;;;;;;;26.96;53.34;99575.16;5033509;28;20259;-63
2023/08/19 05:18:07;;;;;;;31.43;18.17;;;;;;;27.67;51.31;99580.03;5023568;28;20206;-64
2023/08/19 05:20:37;;;;;;;33.87;15.23;;;;;;;28.25;48.30;99572.72;5014447;28;20196;-64
2023/08/19 05:23:04;;;;;;;33.27;17.13;;;;;;;28.65;47.46;99572.56;5014458;28;20294;-64
2023/08/19 05:25:35;;;;;;;24.80;17.40;;;;;;;29.07;46.63;99561.09;5013973;28;20198;-65
2023/08/19 05:28:02;;;;;;;15.33;11.30;;;;;;;29.51;44.56;99573.00;5014341;28;20194;-66
2023/08/19 05:30:32;;;;;;;17.70;13.23;;;;;;;29.98;43.42;99575.72;5023664;28;20197;-66
2023/08/19 05:32:59;;;;;;;16.03;12.77;;;;;;;30.32;41.99;99570.25;5033829;28;20279;-66
2023/08/19 05:35:25;;;;;;;16.47;9.60;;;;;;;30.20;41.88;99578.31;5033468;28;20659;-65
2023/08/19 05:37:52;;;;;;;14.53;11.27;;;;;;;29.78;43.02;99581.81;5033566;28;20224;-66
2023/08/19 05:40:19;;;;;;;25.37;10.33;;;;;;;29.52;44.20;99582.84;5033993;28;20197;-65
2023/08/19 05:42:47;;;;;;;17.10;9.63;;;;;;;29.27;45.14;99590.63;5019868;28;20252;-66
2023/08/19 05:45:14;;;;;;;17.43;10.17;;;;;;;29.08;45.74;99579.09;5013647;28;20264;-68
2023/08/19 05:47:41;;;;;;;16.63;8.97;;;;;;;28.77;46.26;99578.28;5013571;28;20198;-67
2023/08/19 05:50:08;;;;;;;16.17;9.53;;;;;;;28.66;46.72;99587.84;5013689;28;20198;-70
2023/08/19 05:52:37;;;;;;;14.37;9.10;;;;;;;28.64;46.38;99579.16;5013691;28;20225;-67
2023/08/19 05:55:05;;;;;;;8.83;7.93;;;;;;;28.78;45.60;99584.53;5027747;28;20197;-68
2023/08/19 05:57:32;;;;;;;17.00;8.83;;;;;;;28.98;45.77;99584.84;5033219;28;20212;-68
2023/08/19 06:00:00;;;;;;;11.00;7.53;;;;;;;29.56;43.70;99590.06;5032533;28;20726;-68
2023/08/19 06:02:26;;;;;;;10.37;6.67;;;;;;;29.45;43.25;99588.78;5034236;28;20201;-69
2023/08/19 06:04:53;;;;;;;13.07;6.17;;;;;;;29.01;44.00;99583.44;5053176;28;20200;-68
2023/08/19 06:07:25;;;;;;;13.80;6.00;;;;;;;28.52;45.62;99572.66;5041999;28;20194;-69
2023/08/19 06:09:55;;;;;;;10.43;6.20;;;;;;;28.42;46.59;99578.38;5031159;28;20348;-68
2023/08/19 06:12:22;;;;;;;10.13;5.87;;;;;;;28.32;46.89;99567.63;5030839;28;20656;-69
2023/08/19 06:14:48;;;;;;;16.90;6.27;;;;;;;28.53;46.87;99576.97;5028902;28;20729;-69
2023/08/19 06:17:16;;;;;;;8.60;5.73;;;;;;;28.76;46.16;99570.38;5029450;28;20748;-70
2023/08/19 06:19:45;;;;;;;5.97;5.30;;;;;;;28.98;45.21;99573.88;5031050;28;20231;-68
2023/08/19 06:22:12;;;;;;;5.63;4.90;;;;;;;29.11;44.45;99566.72;5031848;28;20223;-69
2023/08/19 06:24:38;;;;;;;6.33;5.20;;;;;;;28.88;44.96;99563.19;5030873;28;20220;-69
2023/08/19 06:27:05;;;;;;;9.53;5.20;;;;;;;28.90;46.01;99554.69;5031623;28;20201;-68
2023/08/19 06:29:32;;;;;;;10.67;5.00;;;;;;;29.23;43.87;99565.03;5032328;28;20517;-68
2023/08/19 06:31:59;;;;;;;7.00;4.60;;;;;;;29.74;43.05;99564.41;5032003;28;20236;-68
2023/08/19 06:34:28;;;;;;;10.10;5.43;;;;;;;29.79;41.80;99552.47;5031956;28;20727;-68
2023/08/19 06:36:58;;;;;;;5.97;4.83;;;;;;;29.74;42.80;99552.63;5032025;28;20204;-68
2023/08/19 06:39:28;;;;;;;9.20;5.30;;;;;;;29.77;42.91;99547.31;5032073;28;20193;-69
2023/08/19 06:42:01;;;;;;;12.13;4.97;;;;;;;29.80;43.04;99557.63;5032320;28;20212;-69
2023/08/19 06:44:30;;;;;;;9.03;4.30;;;;;;;29.78;42.88;99551.66;5032413;28;20289;-69
2023/08/19 06:46:58;;;;;;;13.00;5.17;;;;;;;29.90;43.11;99549.09;5032214;28;20253;-68
2023/08/19 06:49:25;;;;;;;10.93;5.30;;;;;;;30.07;42.76;99559.25;5032371;28;20267;-70
2023/08/19 06:51:54;;;;;;;20.57;6.20;;;;;;;30.31;42.28;99563.16;5031978;28;20275;-69
2023/08/19 06:54:21;;;;;;;15.77;5.40;;;;;;;30.79;40.92;99563.75;5031974;28;20665;-68
2023/08/19 06:56:52;;;;;;;15.60;5.97;;;;;;;31.22;39.83;99556.19;5031986;28;20201;-68
2023/08/19 06:59:27;;;;;;;11.93;5.67;;;;;;;31.19;38.70;99559.59;5032292;28;20194;-68
2023/08/19 07:01:57;;;;;;;10.70;5.00;;;;;;;30.62;40.37;99563.75;5031840;28;20694;-69
2023/08/19 07:04:27;;;;;;;9.63;4.80;;;;;;;30.14;41.26;99554.13;5031967;28;20577;-69
2023/08/19 07:06:59;;;;;;;9.90;4.50;;;;;;;29.66;42.18;99558.88;5026464;28;20677;-69
2023/08/19 07:09:27;;;;;;;8.73;5.17;;;;;;;29.50;43.49;99553.03;5012386;28;20225;-69
2023/08/19 07:11:54;;;;;;;12.90;5.63;;;;;;;29.57;42.25;99547.09;5011949;28;20229;-67
2023/08/19 07:14:22;;;;;;;15.07;5.07;;;;;;;29.44;42.49;99554.31;5012129;28;20198;-68
2023/08/19 07:16:51;;;;;;;6.87;5.57;;;;;;;29.41;43.17;99554.13;5011801;28;20622;-67
2023/08/19 07:19:22;;;;;;;9.90;5.57;;;;;;;29.61;42.94;99556.31;5011957;28;20197;-68
2023/08/19 07:21:49;;;;;;;5.43;4.97;;;;;;;29.96;42.45;99553.28;5011841;28;20615;-67
2023/08/19 07:24:18;;;;;;;8.30;4.40;;;;;;;30.08;41.63;99556.19;5012166;28;20210;-67
2023/08/19 07:26:46;;;;;;;6.23;4.40;;;;;;;30.19;42.13;99559.47;5012100;28;20256;-67
2023/08/19 07:29:13;;;;;;;5.53;4.53;;;;;;;30.05;41.26;99565.06;5011894;28;20743;-68
2023/08/19 07:31:42;;;;;;;7.13;4.77;;;;;;;30.21;41.12;99568.97;5011884;28;20226;-68
2023/08/19 07:34:09;;;;;;;5.53;4.60;;;;;;;30.43;40.43;99559.75;5012117;28;20198;-68
2023/08/19 07:36:35;;;;;;;5.20;4.70;;;;;;;30.64;39.93;99558.78;5011386;28;20205;-68
2023/08/19 07:39:03;;;;;;;9.33;4.70;;;;;;;30.89;39.89;99566.16;5011690;28;20201;-68
2023/08/19 07:41:32;;;;;;;7.43;4.43;;;;;;;31.34;38.74;99575.53;5011636;28;20666;-69
2023/08/19 07:43:58;;;;;;;5.10;4.00;;;;;;;31.67;38.45;99573.75;5011927;28;20649;-68
2023/08/19 07:46:26;;;;;;;9.87;4.00;;;;;;;31.82;36.99;99580.63;5011997;28;20279;-68
2023/08/19 07:48:52;;;;;;;6.50;4.43;;;;;;;31.49;38.27;99577.75;5012265;28;20236;-68
2023/08/19 07:51:19;;;;;;;9.97;4.20;;;;;;;31.29;38.38;99572.19;5011599;28;20194;-68
2023/08/19 07:53:46;;;;;;;8.20;4.77;;;;;;;30.93;39.59;99569.84;5011468;28;20230;-69
2023/08/19 07:56:13;;;;;;;12.50;4.83;;;;;;;31.07;39.32;99569.66;5012032;28;20193;-69
2023/08/19 07:58:41;;;;;;;9.27;4.97;;;;;;;31.29;39.70;99573.00;5011412;28;20757;-69
2023/08/19 08:01:10;;;;;;;13.60;5.57;;;;;;;31.14;40.97;99565.25;5011876;28;20190;-69
2023/08/19 08:03:37;;;;;;;8.93;4.87;;;;;;;31.17;40.45;99563.78;5011792;28;20260;-69
2023/08/19 08:06:04;;;;;;;5.77;4.30;;;;;;;31.09;39.68;99561.88;5011859;28;20194;-69
2023/08/19 08:08:31;;;;;;;5.77;4.23;;;;;;;31.12;39.57;99567.53;5030166;28;20193;-69
2023/08/19 08:10:57;;;;;;;10.53;5.20;;;;;;;31.20;39.85;99557.66;5031166;28;20681;-69
2023/08/19 08:13:24;;;;;;;4.77;3.87;;;;;;;31.35;39.16;99568.13;5031261;28;20220;-69
2023/08/19 08:15:54;;;;;;;8.83;4.50;;;;;;;31.44;38.34;99564.16;5031168;28;20616;-69
2023/08/19 08:18:20;;;;;;;4.37;3.50;;;;;;;31.49;37.81;99566.75;5031276;28;20224;-69
2023/08/19 08:20:47;;;;;;;5.70;4.50;;;;;;;31.49;37.93;99566.75;5031345;28;20252;-69
2023/08/19 08:23:14;;;;;;;5.67;3.90;;;;;;;31.52;38.18;99566.06;5030998;28;20197;-69
2023/08/19 08:25:40;;;;;;;11.53;4.70;;;;;;;31.37;38.38;99572.16;5031086;28;20615;-69
2023/08/19 08:28:07;;;;;;;5.10;4.60;;;;;;;31.41;38.16;99570.34;5031326;28;20193;-69
2023/08/19 08:30:34;;;;;;;4.50;4.10;;;;;;;31.45;37.81;99570.47;5031122;28;20284;-69
2023/08/19 08:33:03;;;;;;;8.30;3.87;;;;;;;31.44;38.05;99568.88;5031049;28;20217;-69
2023/08/19 08:35:29;;;;;;;7.77;3.70;;;;;;;31.47;38.10;99569.00;5031030;28;20657;-69
2023/08/19 08:37:56;;;;;;;5.17;4.07;;;;;;;31.56;37.83;99564.28;5030786;28;20205;-69
2023/08/19 08:40:23;;;;;;;5.23;4.13;;;;;;;31.61;37.51;99566.81;5030919;28;20255;-69
2023/08/19 08:42:50;;;;;;;4.90;4.37;;;;;;;31.50;38.20;99568.34;5031287;28;20209;-69
2023/08/19 08:45:20;;;;;;;5.30;4.03;;;;;;;31.64;37.95;99563.41;5030791;28;20243;-69
2023/08/19 08:47:48;;;;;;;8.17;4.50;;;;;;;31.77;37.93;99562.38;5030974;28;20255;-69
2023/08/19 08:50:17;;;;;;;8.00;3.93;;;;;;;31.89;36.96;99561.69;5033427;28;20189;-69
2023/08/19 08:52:44;;;;;;;8.63;4.00;;;;;;;32.09;36.39;99558.91;5034694;28;20287;-69
2023/08/19 08:55:12;;;;;;;6.67;4.30;;;;;;;32.34;36.93;99566.19;5034521;28;20545;-69
2023/08/19 08:57:39;;;;;;;6.87;4.20;;;;;;;32.56;36.45;99557.56;5034626;28;20292;-69
2023/08/19 09:00:07;;;;;;;4.10;3.70;;;;;;;32.79;34.82;99561.53;5034547;28;20201;-69
2023/08/19 09:02:36;;;;;;;4.80;3.57;;;;;;;33.01;34.11;99557.59;5034397;28;20639;-69
2023/08/19 09:05:06;;;;;;;9.68;3.38;;;;;;;33.38;33.28;99544.66;5034418;28;20251;-69
2023/08/19 09:07:39;;;;;;;6.93;3.38;;;;;;;33.41;32.50;99555.81;5023629;28;20189;-70
2023/08/19 09:10:12;;;;;;;10.80;3.60;;;;;;;33.66;32.60;99548.31;5015108;28;20189;-69
2023/08/19 09:12:41;;;;;;;4.57;3.20;;;;;;;34.06;31.68;99543.69;5014568;28;20297;-69
2023/08/19 09:15:10;;;;;;;6.43;3.35;;;;;;;34.41;31.40;99544.75;5014236;28;20658;-69
2023/08/19 09:17:38;;;;;;;3.13;2.92;;;;;;;34.40;30.33;99537.59;5014516;28;20202;-70
2023/08/19 09:20:07;;;;;;;3.50;3.30;;;;;;;34.13;30.84;99535.63;5014543;28;20190;-70
2023/08/19 09:22:37;;;;;;;3.40;3.10;;;;;;;33.88;31.00;99534.09;5014026;28;20237;-69
2023/08/19 09:25:06;;;;;;;4.07;3.17;;;;;;;34.06;31.07;99535.41;5014526;28;20553;-68
2023/08/19 09:27:33;;;;;;;3.85;3.13;;;;;;;34.17;30.88;99542.81;5014495;28;20260;-68
2023/08/19 09:30:00;;;;;;;3.55;3.05;;;;;;;34.23;30.26;99537.88;5014277;28;20260;-68
2023/08/19 09:32:28;;;;;;;3.90;3.13;;;;;;;34.55;29.58;99534.09;5014022;28;20245;-68
2023/08/19 09:35:02;;;;;;;4.10;2.83;;;;;;;34.87;29.28;99530.25;5014128;28;20653;-68
2023/08/19 09:37:29;;;;;;;3.75;3.22;;;;;;;35.10;29.24;99534.78;5014424;28;20194;-68
2023/08/19 09:39:57;;;;;;;5.78;3.58;;;;;;;35.41;28.35;99522.94;5014120;28;20272;-68
2023/08/19 09:42:24;;;;;;;3.42;3.15;;;;;;;35.67;28.60;99525.91;5013659;28;20627;-67
2023/08/19 09:44:54;;;;;;;3.20;2.90;;;;;;;35.83;28.33;99523.94;5014071;28;20654;-68
2023/08/19 09:47:20;;;;;;;4.13;3.70;;;;;;;35.99;28.33;99521.91;5014289;28;20201;-66
2023/08/19 09:49:52;;;;;;;3.40;3.20;;;;;;;36.15;28.39;99523.44;5014135;28;20260;-67
2023/08/19 09:52:19;;;;;;;4.65;3.15;;;;;;;36.01;27.11;99523.16;5013956;28;20186;-66
2023/08/19 09:54:52;;;;;;;3.78;2.90;;;;;;;35.76;26.88;99515.50;5013880;28;20190;-66
2023/08/19 09:57:20;;;;;;;6.47;3.10;;;;;;;35.96;26.97;99522.63;5013917;28;20229;-66
2023/08/19 09:59:47;;;;;;;3.22;3.03;;;;;;;36.00;26.41;99513.25;5013741;28;20206;-67
2023/08/19 10:02:16;;;;;;;3.65;2.90;;;;;;;36.03;27.12;99511.72;5013457;28;20252;-67
2023/08/19 10:04:43;;;;;;;5.45;3.10;;;;;;;36.18;26.73;99516.38;5013621;28;20194;-66
2023/08/19 10:07:14;;;;;;;3.30;3.20;;;;;;;36.39;26.46;99516.84;5021313;28;20194;-67
2023/08/19 10:09:41;;;;;;;4.10;2.83;;;;;;;36.53;26.89;99522.63;5033186;28;20247;-67
2023/08/19 10:12:10;;;;;;;6.70;3.08;;;;;;;36.66;25.73;99518.56;5033366;28;20197;-66
2023/08/19 10:14:41;;;;;;;3.72;3.22;;;;;;;36.55;25.97;99506.47;5032786;28;20256;-66
2023/08/19 10:17:08;;;;;;;4.32;2.97;;;;;;;36.44;26.16;99514.56;5033374;28;20239;-66
2023/08/19 10:19:43;;;;;;;3.20;3.00;;;;;;;36.52;26.61;99512.72;5033164;28;20197;-66
2023/08/19 10:22:13;;;;;;;2.90;2.80;;;;;;;36.45;25.99;99512.59;5032742;28;20708;-67
2023/08/19 10:24:41;;;;;;;2.92;2.72;;;;;;;36.39;26.48;99514.06;5032891;28;20197;-66
2023/08/19 10:27:16;;;;;;;3.63;3.33;;;;;;;36.39;26.55;99508.53;5033035;28;20258;-66
2023/08/19 10:29:48;;;;;;;4.38;2.67;;;;;;;36.45;26.00;99504.28;5032517;28;20189;-66
2023/08/19 10:32:28;;;;;;;3.15;2.95;;;;;;;36.58;25.94;99506.53;5032680;28;20236;-66
2023/08/19 10:35:04;;;;;;;3.10;2.90;;;;;;;36.59;25.82;99499.81;5032835;28;20278;-66
2023/08/19 10:37:31;;;;;;;4.78;3.22;;;;;;;36.38;25.30;99507.72;5032514;28;20668;-65
2023/08/19 10:40:06;;;;;;;3.20;3.00;;;;;;;36.29;25.89;99512.69;5032757;28;20426;-65
2023/08/19 10:42:33;;;;;;;7.00;3.50;;;;;;;35.92;25.81;99510.69;5032569;28;20554;-66
2023/08/19 10:45:01;;;;;;;3.40;3.10;;;;;;;35.91;25.63;99504.38;5032771;28;20197;-65
2023/08/19 10:47:28;;;;;;;3.22;3.03;;;;;;;35.75;26.40;99494.50;5032402;28;20193;-66
2023/08/19 10:50:01;;;;;;;3.80;3.20;;;;;;;35.82;26.12;99500.22;5032217;28;20628;-65
2023/08/19 10:52:29;;;;;;;4.20;3.08;;;;;;;35.58;26.71;99504.00;5032393;28;20288;-66
2023/08/19 10:54:59;;;;;;;3.45;2.92;;;;;;;35.56;26.65;99498.03;5032306;28;20216;-65
2023/08/19 10:57:27;;;;;;;4.05;3.47;;;;;;;35.39;26.80;99494.88;5032302;28;20201;-65
2023/08/19 10:59:56;;;;;;;4.50;2.92;;;;;;;35.47;26.89;99474.50;5032222;28;20550;-65
2023/08/19 11:02:24;;;;;;;4.18;3.38;;;;;;;35.15;28.20;99478.47;5032486;28;20280;-65
2023/08/19 11:04:52;;;;;;;3.40;3.10;;;;;;;34.86;28.39;99476.97;5032334;28;20216;-66
2023/08/19 11:07:19;;;;;;;3.83;2.97;;;;;;;35.11;27.72;99480.34;5023273;28;20198;-65
2023/08/19 11:09:47;;;;;;;3.60;3.30;;;;;;;35.34;27.33;99486.84;5012308;28;20256;-65
2023/08/19 11:12:17;;;;;;;4.30;3.47;;;;;;;35.42;27.38;99480.31;5011553;28;20198;-66
2023/08/19 11:14:47;;;;;;;8.77;3.20;;;;;;;35.22;28.00;99475.88;5012072;28;20245;-65
2023/08/19 11:17:14;;;;;;;5.25;2.75;;;;;;;35.25;27.45;99487.03;5012441;28;20693;-66
2023/08/19 11:19:42;;;;;;;3.22;3.00;;;;;;;35.38;27.45;99480.25;5012414;28;20198;-66
2023/08/19 11:22:12;;;;;;;5.53;3.40;;;;;;;35.44;27.44;99462.22;5012175;28;20198;-67
2023/08/19 11:24:40;;;;;;;5.60;3.60;;;;;;;35.64;27.51;99466.59;5011953;28;20512;-64
2023/08/19 11:27:08;;;;;;;3.92;3.53;;;;;;;35.78;26.68;99466.97;5012415;28;20190;-65
2023/08/19 11:29:38;;;;;;;3.10;2.97;;;;;;;35.71;26.71;99475.06;5012458;28;20186;-65
2023/08/19 11:32:05;;;;;;;6.45;3.50;;;;;;;35.76;26.87;99466.50;5012387;28;20233;-65
2023/08/19 11:34:32;;;;;;;10.15;3.20;;;;;;;35.75;26.60;99458.56;5011809;28;20226;-66
2023/08/19 11:37:05;;;;;;;3.70;3.10;;;;;;;35.68;26.71;99466.72;5011917;28;20194;-66